»·PEaware :: UAL1430 PHOG-KDEN

UAL1430 :: PHOG-KDEN

FLIGHT INFORMATION

Flight Status: Arrived
Operator:
United Airlines
More flights by this operator :: More flights under this callsign
Pilot: Thomas C. (28508)
Aircraft: BOEING 777-200
(B772)
More flights by this aircraft type
Origin: PHOG Kahului
United States
Destination: KDEN Denver Intl
United States
More flights between these airports :: More routes between these airports
Route: + / HAQHY SSKII1
File this flight plan on PilotEdge
Remarks: PBN / A1B1C1D1L1O1S2 NAV / RNVD1E2A1 DOF / 200426 REG / N777UA EET / KZAK0035 KZOA0352 KZLC0442 KZDV0531 SEL / AQBG OPR / UAL PER / D RALT / PHTO KSFO RMK / TCAS
Altitude:
(Current/Filed)
37,000ft
Speed:
(Current/Filed)
475kts
Departed: 26-Apr-20 01:24 PM
Arrived: 26-Apr-20 07:39 PM
Distance/Time
Traveled:
2864nm/6:15
Distance/Time
To Go:
Arrived

Flight Plot

Page will automatically refresh every two minutes.

Flight plan parsing failed; only flown route is shown


Map Options




Map Legend


Flown Route
Filed Route
Departure Airport
Arrival Airport
Navaid (VOR, NDB)
Fix

Horizontal Profiles

Position Reports

Time Latitude Longitude Heading Altitude Ground
Speed
26-Apr-20 12:14 20.895216 -156.434946 303 71ft 0kts
26-Apr-20 12:15 20.895216 -156.434946 303 71ft 0kts
26-Apr-20 12:16 20.895216 -156.434946 303 71ft 0kts
26-Apr-20 12:17 20.895216 -156.434946 303 71ft 0kts
26-Apr-20 12:18 20.895216 -156.434946 303 71ft 0kts
26-Apr-20 12:19 20.895216 -156.434946 303 71ft 0kts
26-Apr-20 12:20 20.895215 -156.434946 303 72ft 0kts
26-Apr-20 12:21 20.895216 -156.434946 303 71ft 0kts
26-Apr-20 12:22 20.895216 -156.434946 303 71ft 0kts
26-Apr-20 12:23 20.895216 -156.434946 303 71ft 0kts
26-Apr-20 12:24 20.895216 -156.434946 303 71ft 0kts
26-Apr-20 12:25 20.895216 -156.434946 303 71ft 0kts
26-Apr-20 12:26 20.895216 -156.434946 303 71ft 0kts
26-Apr-20 12:27 20.895216 -156.434946 303 71ft 0kts
26-Apr-20 12:28 20.895216 -156.434946 303 71ft 0kts
26-Apr-20 12:29 20.895216 -156.434946 303 71ft 0kts
26-Apr-20 12:30 20.895216 -156.434946 303 71ft 0kts
26-Apr-20 12:31 20.895216 -156.434946 303 71ft 0kts
26-Apr-20 12:32 20.895216 -156.434946 303 71ft 0kts
26-Apr-20 12:33 20.895216 -156.434946 303 71ft 0kts
26-Apr-20 12:34 20.895216 -156.434946 303 71ft 0kts
26-Apr-20 12:35 20.895216 -156.434946 303 71ft 0kts
26-Apr-20 12:36 20.895216 -156.434946 303 71ft 0kts
26-Apr-20 12:37 20.895216 -156.434946 303 71ft 0kts
26-Apr-20 12:38 20.895216 -156.434946 303 71ft 0kts
26-Apr-20 12:39 20.895216 -156.434946 303 71ft 0kts
26-Apr-20 12:40 20.895216 -156.434946 303 71ft 0kts
26-Apr-20 12:41 20.895216 -156.434946 303 71ft 0kts
26-Apr-20 12:42 20.895216 -156.434946 303 71ft 0kts
26-Apr-20 12:43 20.895216 -156.434946 303 71ft 0kts
26-Apr-20 12:44 20.895216 -156.434946 303 71ft 0kts
26-Apr-20 12:45 20.895216 -156.434946 303 71ft 0kts
26-Apr-20 12:46 20.895216 -156.434946 303 71ft 0kts
26-Apr-20 12:47 20.895216 -156.434946 303 71ft 0kts
26-Apr-20 12:48 20.895216 -156.434946 303 71ft 0kts
26-Apr-20 12:49 20.895216 -156.434946 303 71ft 0kts
26-Apr-20 12:50 20.895216 -156.434946 303 71ft 0kts
26-Apr-20 12:51 20.895216 -156.434946 303 71ft 0kts
26-Apr-20 12:52 20.895216 -156.434946 303 71ft 0kts
26-Apr-20 12:53 20.895216 -156.434946 303 71ft 0kts
26-Apr-20 12:54 20.895216 -156.434946 303 71ft 0kts
26-Apr-20 12:55 20.895216 -156.434946 303 71ft 0kts
26-Apr-20 12:56 20.895216 -156.434946 303 71ft 0kts
26-Apr-20 12:57 20.895216 -156.434946 303 71ft 0kts
26-Apr-20 12:58 20.895216 -156.434946 303 71ft 0kts
26-Apr-20 12:59 20.895216 -156.434946 303 71ft 0kts
26-Apr-20 13:00 20.895216 -156.434946 303 71ft 0kts
26-Apr-20 13:01 20.895216 -156.434946 303 71ft 0kts
26-Apr-20 13:02 20.895216 -156.434946 303 71ft 0kts
26-Apr-20 13:03 20.895216 -156.434946 303 71ft 0kts
26-Apr-20 13:04 20.895216 -156.434946 303 71ft 0kts
26-Apr-20 13:05 20.895216 -156.434946 303 71ft 0kts
26-Apr-20 13:06 20.895216 -156.434946 303 71ft 0kts
26-Apr-20 13:07 20.895216 -156.434946 303 71ft 0kts
26-Apr-20 13:08 20.895216 -156.434947 303 71ft 0kts
26-Apr-20 13:09 20.895216 -156.434948 304 71ft 0kts
26-Apr-20 13:10 20.895217 -156.434948 303 71ft 0kts
26-Apr-20 13:11 20.895217 -156.434949 303 71ft 0kts
26-Apr-20 13:12 20.895209 -156.434936 303 71ft 1kts
26-Apr-20 13:13 20.894867 -156.434411 305 71ft 2kts
26-Apr-20 13:14 20.894613 -156.433919 253 71ft 2kts
26-Apr-20 13:15 20.894737 -156.433752 215 71ft 0kts
26-Apr-20 13:16 20.894737 -156.433752 214 71ft 0kts
26-Apr-20 13:17 20.893412 -156.434750 214 71ft 13kts
26-Apr-20 13:18 20.890320 -156.437064 209 71ft 7kts
26-Apr-20 13:19 20.890060 -156.437066 162 71ft 0kts
26-Apr-20 13:20 20.890060 -156.437066 162 71ft 0kts
26-Apr-20 13:21 20.890053 -156.437063 162 71ft 1kts
26-Apr-20 13:22 20.890000 -156.435702 36 71ft 22kts
26-Apr-20 13:23 20.916534 -156.415969 37 1301ft 152kts
26-Apr-20 13:25 20.952354 -156.389261 38 3204ft 172kts
26-Apr-20 13:26 21.007132 -156.344904 39 5317ft 256kts
26-Apr-20 13:27 21.067763 -156.294085 39 8433ft 285kts
26-Apr-20 13:28 21.133086 -156.239675 39 10619ft 334kts
26-Apr-20 13:29 21.208433 -156.176992 39 13859ft 351kts
26-Apr-20 13:30 21.286767 -156.111594 38 16753ft 366kts
26-Apr-20 13:31 21.368679 -156.043126 38 19411ft 380kts
26-Apr-20 13:32 21.454521 -155.971240 38 21891ft 391kts
26-Apr-20 13:33 21.542172 -155.897720 38 24141ft 401kts
26-Apr-20 13:34 21.633707 -155.820858 38 26167ft 414kts
26-Apr-20 13:35 21.727480 -155.741960 38 28001ft 425kts
26-Apr-20 13:36 21.822038 -155.662264 38 29631ft 435kts
26-Apr-20 13:37 21.918167 -155.581091 38 31176ft 445kts
26-Apr-20 13:38 22.016502 -155.497915 38 32926ft 450kts
26-Apr-20 13:39 22.112978 -155.416283 39 34857ft 446kts
26-Apr-20 13:40 22.210713 -155.333227 39 35975ft 456kts
26-Apr-20 13:40 22.294231 -155.262123 38 36847ft 462kts
26-Apr-20 13:42 22.411570 -155.162224 38 37102ft 462kts
26-Apr-20 13:43 22.512366 -155.076187 38 37102ft 462kts
26-Apr-20 13:43 22.596117 -155.004567 38 37102ft 462kts
26-Apr-20 13:44 22.697094 -154.918070 37 37103ft 462kts
26-Apr-20 13:46 22.814115 -154.817613 37 37103ft 462kts
26-Apr-20 13:46 22.897997 -154.745464 37 37103ft 462kts
26-Apr-20 13:47 22.996997 -154.657493 46 37100ft 462kts
26-Apr-20 13:48 23.070988 -154.543587 56 37104ft 462kts
26-Apr-20 13:50 23.153858 -154.407621 56 37103ft 462kts
26-Apr-20 13:50 23.212099 -154.311556 55 37103ft 444kts
26-Apr-20 13:51 23.279220 -154.200987 55 37105ft 440kts
26-Apr-20 13:52 23.346439 -154.089840 55 37102ft 440kts
26-Apr-20 13:53 23.413770 -153.978279 55 37102ft 440kts
26-Apr-20 13:54 23.481010 -153.866601 55 37102ft 441kts
26-Apr-20 13:55 23.548127 -153.754892 56 37102ft 441kts
26-Apr-20 13:56 23.614954 -153.643420 56 37101ft 441kts
26-Apr-20 13:57 23.681894 -153.531510 56 37101ft 441kts
26-Apr-20 13:58 23.748935 -153.419181 56 37101ft 441kts
26-Apr-20 13:59 23.815791 -153.307288 56 37102ft 441kts
26-Apr-20 14:00 23.882996 -153.194892 56 37101ft 441kts
26-Apr-20 14:01 23.949792 -153.082925 56 37101ft 441kts
26-Apr-20 14:02 24.016618 -152.970656 56 37101ft 441kts
26-Apr-20 14:03 24.083613 -152.857845 56 37101ft 441kts
26-Apr-20 14:04 24.150191 -152.745487 56 37102ft 441kts
26-Apr-20 14:05 24.216981 -152.632511 56 37102ft 441kts
26-Apr-20 14:06 24.283583 -152.519593 56 37102ft 441kts
26-Apr-20 14:07 24.350072 -152.406606 56 37101ft 441kts
26-Apr-20 14:08 24.416458 -152.293531 57 37103ft 441kts
26-Apr-20 14:09 24.482710 -152.180426 57 37102ft 441kts
26-Apr-20 14:10 24.549071 -152.066869 57 37102ft 442kts
26-Apr-20 14:11 24.615236 -151.953383 57 37102ft 442kts
26-Apr-20 14:12 24.681184 -151.840004 57 37102ft 442kts
26-Apr-20 14:13 24.747288 -151.726089 57 37101ft 442kts
26-Apr-20 14:14 24.813227 -151.612187 57 37101ft 442kts
26-Apr-20 14:15 24.879158 -151.498029 57 37101ft 442kts
26-Apr-20 14:16 24.944907 -151.383913 57 37101ft 442kts
26-Apr-20 14:17 25.010613 -151.269609 57 37102ft 442kts
26-Apr-20 14:18 25.076262 -151.155121 57 37102ft 443kts
26-Apr-20 14:19 25.141975 -151.040242 58 37102ft 444kts
26-Apr-20 14:20 25.207873 -150.924766 58 37102ft 445kts
26-Apr-20 14:21 25.273876 -150.808822 58 37102ft 446kts
26-Apr-20 14:22 25.339803 -150.692721 58 37102ft 447kts
26-Apr-20 14:23 25.405796 -150.576214 58 37102ft 448kts
26-Apr-20 14:24 25.471795 -150.459407 58 37102ft 449kts
26-Apr-20 14:25 25.538005 -150.341933 58 37102ft 449kts
26-Apr-20 14:26 25.603933 -150.224668 58 37102ft 449kts
26-Apr-20 14:27 25.669934 -150.106975 58 37102ft 449kts
26-Apr-20 14:28 25.735748 -149.989316 58 37102ft 449kts
26-Apr-20 14:29 25.801485 -149.871494 58 37102ft 449kts
26-Apr-20 14:30 25.866954 -149.753853 58 37102ft 449kts
26-Apr-20 14:31 25.933130 -149.634562 57 37101ft 455kts
26-Apr-20 14:32 25.999339 -149.515044 57 37103ft 455kts
26-Apr-20 14:33 26.065595 -149.395059 57 37103ft 455kts
26-Apr-20 14:34 26.131674 -149.275086 58 37102ft 456kts
26-Apr-20 14:35 26.197803 -149.154700 58 37102ft 456kts
26-Apr-20 14:36 26.263914 -149.034025 58 37102ft 457kts
26-Apr-20 14:37 26.330070 -148.912945 58 37102ft 457kts
26-Apr-20 14:38 26.396110 -148.791753 58 37102ft 458kts
26-Apr-20 14:39 26.462064 -148.670391 58 37103ft 458kts
26-Apr-20 14:40 26.528000 -148.548735 58 37103ft 459kts
26-Apr-20 14:41 26.593749 -148.427092 58 37103ft 459kts
26-Apr-20 14:42 26.659343 -148.305410 58 37101ft 459kts
26-Apr-20 14:43 26.725215 -148.182873 58 37102ft 460kts
26-Apr-20 14:44 26.790938 -148.060276 58 37102ft 460kts
26-Apr-20 14:45 26.856629 -147.937399 58 37102ft 460kts
26-Apr-20 14:46 26.922282 -147.814250 58 37103ft 460kts
26-Apr-20 14:47 26.987607 -147.691374 58 37103ft 461kts
26-Apr-20 14:48 27.053181 -147.567683 58 37104ft 461kts
26-Apr-20 14:49 27.118397 -147.444326 58 37103ft 461kts
26-Apr-20 14:50 27.183786 -147.320298 59 37101ft 461kts
26-Apr-20 14:51 27.248938 -147.196350 59 37101ft 461kts
26-Apr-20 14:52 27.314125 -147.072003 59 37102ft 461kts
26-Apr-20 14:53 27.379073 -146.947756 59 37102ft 461kts
26-Apr-20 14:54 27.443762 -146.823647 59 37102ft 461kts
26-Apr-20 14:55 27.508277 -146.699516 59 37103ft 460kts
26-Apr-20 14:56 27.572872 -146.574871 59 37103ft 460kts
26-Apr-20 14:57 27.637158 -146.450463 59 37103ft 460kts
26-Apr-20 14:58 27.701358 -146.325862 59 37101ft 460kts
26-Apr-20 14:59 27.765433 -146.201140 59 37102ft 460kts
26-Apr-20 15:00 27.829399 -146.076261 59 37102ft 459kts
26-Apr-20 15:01 27.893321 -145.951103 59 37102ft 459kts
26-Apr-20 15:02 27.956764 -145.826516 59 37103ft 459kts
26-Apr-20 15:03 28.020324 -145.701330 59 37103ft 458kts
26-Apr-20 15:04 28.083517 -145.576496 59 37103ft 458kts
26-Apr-20 15:05 28.146738 -145.451248 59 37103ft 457kts
26-Apr-20 15:06 28.209680 -145.326171 60 37101ft 457kts
26-Apr-20 15:07 28.272332 -145.201290 60 37102ft 456kts
26-Apr-20 15:08 28.334993 -145.076025 60 37102ft 455kts
26-Apr-20 15:09 28.397146 -144.951400 60 37102ft 455kts
26-Apr-20 15:10 28.459480 -144.826036 60 37102ft 455kts
26-Apr-20 15:11 28.521519 -144.700890 60 37102ft 455kts
26-Apr-20 15:12 28.583365 -144.575755 59 37103ft 455kts
26-Apr-20 15:13 28.645250 -144.450160 59 37103ft 455kts
26-Apr-20 15:14 28.706947 -144.324563 60 37101ft 455kts
26-Apr-20 15:15 28.768545 -144.198785 60 37102ft 455kts
26-Apr-20 15:16 28.830155 -144.072593 60 37102ft 455kts
26-Apr-20 15:17 28.891567 -143.946416 60 37102ft 455kts
26-Apr-20 15:18 28.952846 -143.820120 60 37102ft 456kts
26-Apr-20 15:19 29.014146 -143.693387 60 37102ft 456kts
26-Apr-20 15:20 29.075478 -143.566190 60 37103ft 456kts
26-Apr-20 15:21 29.136638 -143.439003 60 37104ft 458kts
26-Apr-20 15:22 29.197919 -143.311069 60 37101ft 458kts
26-Apr-20 15:23 29.259152 -143.182859 60 37102ft 459kts
26-Apr-20 15:24 29.320056 -143.054940 60 37102ft 459kts
26-Apr-20 15:25 29.381161 -142.926185 60 37102ft 460kts
26-Apr-20 15:26 29.442203 -142.797148 60 37103ft 460kts
26-Apr-20 15:27 29.502956 -142.668304 60 37103ft 461kts
26-Apr-20 15:28 29.563882 -142.538670 60 37103ft 461kts
26-Apr-20 15:29 29.624866 -142.408488 60 37104ft 462kts
26-Apr-20 15:30 29.685709 -142.278180 61 37101ft 463kts
26-Apr-20 15:31 29.746358 -142.147855 61 37102ft 464kts
26-Apr-20 15:33 29.807115 -142.016862 61 37102ft 464kts
26-Apr-20 15:34 29.867870 -141.885434 61 37103ft 465kts
26-Apr-20 15:35 29.928446 -141.753949 61 37103ft 466kts
26-Apr-20 15:36 29.989178 -141.621682 61 37104ft 467kts
26-Apr-20 15:37 30.049854 -141.489132 61 37104ft 468kts
26-Apr-20 15:38 30.110492 -141.356118 61 37104ft 469kts
26-Apr-20 15:39 30.171336 -141.222243 61 37100ft 470kts
26-Apr-20 15:40 30.232125 -141.088020 61 37101ft 472kts
26-Apr-20 15:41 30.292640 -140.953936 61 37102ft 473kts
26-Apr-20 15:42 30.353484 -140.818647 61 37103ft 474kts
26-Apr-20 15:43 30.414312 -140.682886 61 37103ft 475kts
26-Apr-20 15:44 30.474963 -140.546855 61 37105ft 476kts
26-Apr-20 15:45 30.535606 -140.410352 61 37106ft 478kts
26-Apr-20 15:46 30.596318 -140.273206 62 37101ft 479kts
26-Apr-20 15:47 30.656981 -140.135666 62 37101ft 480kts
26-Apr-20 15:47 30.707648 -140.020404 62 37102ft 481kts
26-Apr-20 15:49 30.778269 -139.859151 62 37104ft 482kts
26-Apr-20 15:50 30.838854 -139.720268 62 37105ft 482kts
26-Apr-20 15:50 30.889383 -139.604039 62 37106ft 483kts
26-Apr-20 15:51 30.949868 -139.464432 62 37107ft 484kts
26-Apr-20 15:53 31.020367 -139.301067 62 37100ft 484kts
26-Apr-20 15:53 31.070706 -139.183958 62 37102ft 485kts
26-Apr-20 15:54 31.130881 -139.043482 62 37101ft 485kts
26-Apr-20 15:55 31.191097 -138.902379 62 37102ft 486kts
26-Apr-20 15:56 31.251237 -138.760914 62 37103ft 487kts
26-Apr-20 15:57 31.311366 -138.618925 62 37105ft 487kts
26-Apr-20 15:58 31.371140 -138.477228 62 37106ft 488kts
26-Apr-20 15:59 31.431057 -138.334642 62 37103ft 488kts
26-Apr-20 16:00 31.490720 -138.192093 62 37100ft 489kts
26-Apr-20 16:01 31.550416 -138.048906 62 37102ft 489kts
26-Apr-20 16:02 31.609817 -137.905867 62 37102ft 489kts
26-Apr-20 16:03 31.669092 -137.762559 62 37105ft 490kts
26-Apr-20 16:04 31.728510 -137.618332 62 37106ft 490kts
26-Apr-20 16:05 31.787496 -137.474577 62 37107ft 490kts
26-Apr-20 16:06 31.846468 -137.330286 62 37101ft 490kts
26-Apr-20 16:07 31.905315 -137.185712 62 37101ft 491kts
26-Apr-20 16:08 31.964064 -137.040785 62 37102ft 491kts
26-Apr-20 16:09 32.022674 -136.895609 62 37104ft 491kts
26-Apr-20 16:10 32.081062 -136.750386 62 37104ft 491kts
26-Apr-20 16:11 32.139516 -136.604410 62 37105ft 491kts
26-Apr-20 16:12 32.197537 -136.458908 62 37106ft 491kts
26-Apr-20 16:13 32.255578 -136.312764 63 37097ft 491kts
26-Apr-20 16:14 32.313445 -136.166403 63 37100ft 492kts
26-Apr-20 16:15 32.371148 -136.019873 62 37102ft 492kts
26-Apr-20 16:16 32.428487 -135.873650 62 37103ft 491kts
26-Apr-20 16:17 32.485977 -135.726417 62 37105ft 491kts
26-Apr-20 16:18 32.542989 -135.579786 62 37106ft 491kts
26-Apr-20 16:19 32.599870 -135.432871 62 37107ft 491kts
26-Apr-20 16:20 32.656745 -135.285350 63 37098ft 491kts
26-Apr-20 16:21 32.713318 -135.137952 63 37101ft 491kts
26-Apr-20 16:22 32.769679 -134.990485 63 37102ft 491kts
26-Apr-20 16:23 32.825770 -134.843092 63 37103ft 490kts
26-Apr-20 16:24 32.881677 -134.695531 63 37105ft 489kts
26-Apr-20 16:25 32.937260 -134.548187 63 37106ft 489kts
26-Apr-20 16:26 32.992733 -134.400489 63 37107ft 488kts
26-Apr-20 16:27 33.047733 -134.253420 63 37099ft 487kts
26-Apr-20 16:28 33.102819 -134.105463 63 37100ft 487kts
26-Apr-20 16:29 33.157404 -133.958196 63 37103ft 486kts
26-Apr-20 16:30 33.211829 -133.810712 63 37104ft 486kts
26-Apr-20 16:31 33.266071 -133.663071 63 37105ft 485kts
26-Apr-20 16:32 33.319998 -133.515688 63 37106ft 484kts
26-Apr-20 16:33 33.373652 -133.368419 63 37106ft 483kts
26-Apr-20 16:34 33.427166 -133.220870 64 37100ft 482kts
26-Apr-20 16:35 33.480373 -133.073507 64 37101ft 482kts
26-Apr-20 16:36 33.533179 -132.926593 64 37102ft 481kts
26-Apr-20 16:37 33.585879 -132.779317 63 37104ft 480kts
26-Apr-20 16:38 33.638340 -132.632034 63 37105ft 479kts
26-Apr-20 16:39 33.690445 -132.485086 63 37105ft 479kts
26-Apr-20 16:40 33.742276 -132.338248 64 37103ft 478kts
26-Apr-20 16:41 33.794103 -132.190750 64 37100ft 477kts
26-Apr-20 16:42 33.845480 -132.043850 64 37101ft 477kts
26-Apr-20 16:43 33.896549 -131.897164 64 37102ft 476kts
26-Apr-20 16:44 33.947464 -131.750239 64 37103ft 475kts
26-Apr-20 16:45 33.998080 -131.603502 64 37103ft 474kts
26-Apr-20 16:46 34.048427 -131.456866 64 37104ft 473kts
26-Apr-20 16:47 34.098555 -131.310204 64 37097ft 473kts
26-Apr-20 16:48 34.148466 -131.163469 64 37102ft 472kts
26-Apr-20 16:49 34.198158 -131.016703 64 37103ft 471kts
26-Apr-20 16:50 34.247629 -130.869901 64 37104ft 471kts
26-Apr-20 16:51 34.296796 -130.723314 64 37105ft 470kts
26-Apr-20 16:52 34.345500 -130.577417 64 37105ft 469kts
26-Apr-20 16:53 34.394183 -130.430894 64 37106ft 468kts
26-Apr-20 16:54 34.442450 -130.284930 65 37100ft 468kts
26-Apr-20 16:55 34.490544 -130.138791 65 37102ft 467kts
26-Apr-20 16:56 34.538372 -129.992769 65 37102ft 466kts
26-Apr-20 16:57 34.586016 -129.846619 65 37102ft 466kts
26-Apr-20 16:58 34.633413 -129.700512 65 37103ft 466kts
26-Apr-20 16:59 34.680703 -129.554033 65 37104ft 466kts
26-Apr-20 17:00 34.727819 -129.407383 65 37104ft 466kts
26-Apr-20 17:01 34.774765 -129.260553 66 37100ft 467kts
26-Apr-20 17:02 34.821668 -129.113130 66 37100ft 467kts
26-Apr-20 17:03 34.868180 -128.966211 66 37101ft 467kts
26-Apr-20 17:04 34.914940 -128.817781 66 37101ft 468kts
26-Apr-20 17:05 34.961307 -128.669852 66 37102ft 469kts
26-Apr-20 17:06 35.007751 -128.520927 66 37103ft 469kts
26-Apr-20 17:07 35.053918 -128.372145 66 37104ft 470kts
26-Apr-20 17:08 35.099712 -128.223836 66 37099ft 471kts
26-Apr-20 17:09 35.145871 -128.073557 66 37102ft 472kts
26-Apr-20 17:10 35.191759 -127.923394 66 37103ft 473kts
26-Apr-20 17:11 35.237556 -127.772518 66 37103ft 469kts
26-Apr-20 17:12 35.282738 -127.623354 66 37105ft 470kts
26-Apr-20 17:13 35.327954 -127.473070 66 37106ft 470kts
26-Apr-20 17:14 35.372909 -127.322874 67 37100ft 471kts
26-Apr-20 17:15 35.417928 -127.171648 67 37101ft 472kts
26-Apr-20 17:16 35.462594 -127.020821 67 37102ft 472kts
26-Apr-20 17:17 35.507346 -126.868894 67 37103ft 473kts
26-Apr-20 17:18 35.551885 -126.716873 67 37104ft 474kts
26-Apr-20 17:19 35.596218 -126.564737 67 37105ft 474kts
26-Apr-20 17:20 35.640391 -126.412321 67 37105ft 474kts
26-Apr-20 17:21 35.684556 -126.259109 67 37100ft 476kts
26-Apr-20 17:22 35.728515 -126.105754 67 37101ft 476kts
26-Apr-20 17:23 35.779401 -125.955884 63 37101ft 474kts
26-Apr-20 17:24 35.830622 -125.806224 63 37102ft 475kts
26-Apr-20 17:25 35.881668 -125.656326 63 37103ft 475kts
26-Apr-20 17:26 35.932594 -125.506039 63 37104ft 476kts
26-Apr-20 17:27 35.983424 -125.355284 63 37105ft 476kts
26-Apr-20 17:29 36.034091 -125.204275 64 37099ft 477kts
26-Apr-20 17:30 36.084700 -125.052659 64 37100ft 477kts
26-Apr-20 17:31 36.135034 -124.901106 64 37104ft 478kts
26-Apr-20 17:32 36.185263 -124.748418 66 37109ft 479kts
26-Apr-20 17:33 36.231273 -124.594289 66 38095ft 479kts
26-Apr-20 17:34 36.277746 -124.438178 66 39094ft 487kts
26-Apr-20 17:35 36.324655 -124.279716 67 39100ft 486kts
26-Apr-20 17:36 36.371052 -124.122076 67 39129ft 488kts
26-Apr-20 17:37 36.417400 -123.963708 67 39120ft 488kts
26-Apr-20 17:38 36.463489 -123.805328 67 39131ft 489kts
26-Apr-20 17:39 36.509435 -123.646527 67 39132ft 489kts
26-Apr-20 17:40 36.555311 -123.487044 67 39134ft 490kts
26-Apr-20 17:41 36.601038 -123.327165 67 39128ft 491kts
26-Apr-20 17:42 36.646576 -123.166988 68 39127ft 491kts
26-Apr-20 17:43 36.691983 -123.006330 68 39129ft 492kts
26-Apr-20 17:44 36.737126 -122.845655 68 39130ft 492kts
26-Apr-20 17:45 36.782175 -122.684352 68 39132ft 493kts
26-Apr-20 17:45 36.819577 -122.549687 68 39104ft 493kts
26-Apr-20 17:47 36.871631 -122.361131 68 39108ft 493kts
26-Apr-20 17:48 36.916069 -122.199117 68 39100ft 494kts
26-Apr-20 17:48 36.953115 -122.063269 68 39101ft 494kts
26-Apr-20 17:50 37.004663 -121.873074 69 39103ft 495kts
26-Apr-20 17:50 37.041235 -121.737290 69 39104ft 495kts
26-Apr-20 17:51 37.085088 -121.573539 69 39106ft 495kts
26-Apr-20 17:52 37.128633 -121.409928 69 39108ft 495kts
26-Apr-20 17:53 37.172071 -121.245665 69 39100ft 496kts
26-Apr-20 17:54 37.215341 -121.080990 69 39022ft 496kts
26-Apr-20 17:55 37.258246 -120.916652 69 39022ft 496kts
26-Apr-20 17:56 37.301000 -120.751831 69 39023ft 496kts
26-Apr-20 17:57 37.343586 -120.588889 69 39024ft 496kts
26-Apr-20 17:58 37.387645 -120.424345 69 39000ft 496kts
26-Apr-20 17:59 37.431553 -120.259356 69 39018ft 497kts
26-Apr-20 18:00 37.475075 -120.094749 69 39020ft 497kts
26-Apr-20 18:01 37.512736 -119.927744 75 38993ft 498kts
26-Apr-20 18:02 37.543073 -119.757366 76 39060ft 496kts
26-Apr-20 18:03 37.572942 -119.587309 76 39213ft 498kts
26-Apr-20 18:04 37.602525 -119.417351 76 39216ft 497kts
26-Apr-20 18:05 37.631951 -119.246763 76 39208ft 497kts
26-Apr-20 18:06 37.661062 -119.076418 76 39209ft 497kts
26-Apr-20 18:07 37.689981 -118.905638 76 39211ft 497kts
26-Apr-20 18:08 37.718570 -118.735225 76 39212ft 497kts
26-Apr-20 18:09 37.746968 -118.564345 76 39214ft 497kts
26-Apr-20 18:10 37.775061 -118.393693 76 39216ft 496kts
26-Apr-20 18:11 37.802498 -118.225463 77 39021ft 496kts
26-Apr-20 18:12 37.830144 -118.054283 77 39021ft 496kts
26-Apr-20 18:13 37.857471 -117.883432 77 39074ft 496kts
26-Apr-20 18:14 37.884576 -117.712295 77 39078ft 496kts
26-Apr-20 18:15 37.911435 -117.541014 77 39079ft 496kts
26-Apr-20 18:16 37.937978 -117.370052 77 39081ft 496kts
26-Apr-20 18:17 37.962110 -117.213142 77 39073ft 495kts
26-Apr-20 18:18 37.992189 -117.042836 75 39074ft 495kts
26-Apr-20 18:19 38.022872 -116.872597 75 39076ft 495kts
26-Apr-20 18:20 38.053249 -116.702540 75 39078ft 495kts
26-Apr-20 18:21 38.083360 -116.532449 75 39079ft 494kts
26-Apr-20 18:22 38.113182 -116.362507 75 39081ft 494kts
26-Apr-20 18:23 38.142700 -116.192733 76 39073ft 494kts
26-Apr-20 18:24 38.172061 -116.022319 76 39075ft 494kts
26-Apr-20 18:25 38.201199 -115.851642 76 39076ft 494kts
26-Apr-20 18:26 38.230092 -115.680803 76 39131ft 494kts
26-Apr-20 18:27 38.258610 -115.510599 76 39134ft 494kts
26-Apr-20 18:28 38.286917 -115.340051 76 39133ft 493kts
26-Apr-20 18:29 38.315098 -115.168616 76 39128ft 493kts
26-Apr-20 18:30 38.342987 -114.997317 76 39129ft 493kts
26-Apr-20 18:31 38.370539 -114.826417 76 39131ft 493kts
26-Apr-20 18:32 38.397920 -114.654924 76 39132ft 494kts
26-Apr-20 18:33 38.424968 -114.483822 76 39134ft 494kts
26-Apr-20 18:34 38.451902 -114.311774 77 39125ft 494kts
26-Apr-20 18:35 38.478559 -114.139666 77 39044ft 495kts
26-Apr-20 18:36 38.504354 -113.967157 79 39048ft 495kts
26-Apr-20 18:37 38.526663 -113.794382 78 39050ft 495kts
26-Apr-20 18:38 38.548913 -113.620519 78 39051ft 495kts
26-Apr-20 18:39 38.570795 -113.447436 78 39053ft 496kts
26-Apr-20 18:40 38.592586 -113.272978 79 39045ft 496kts
26-Apr-20 18:41 38.614076 -113.098667 79 39047ft 496kts
26-Apr-20 18:42 38.635270 -112.924591 79 39048ft 497kts
26-Apr-20 18:43 38.656282 -112.749790 79 39050ft 497kts
26-Apr-20 18:44 38.676978 -112.575350 79 39052ft 497kts
26-Apr-20 18:45 38.697469 -112.400342 79 39054ft 497kts
26-Apr-20 18:46 38.717777 -112.224588 79 39045ft 498kts
26-Apr-20 18:47 38.737809 -112.048806 79 39128ft 499kts
26-Apr-20 18:48 38.757550 -111.873189 79 39130ft 499kts
26-Apr-20 18:49 38.777086 -111.696942 79 39131ft 499kts
26-Apr-20 18:50 38.796283 -111.521279 79 39191ft 500kts
26-Apr-20 18:51 38.815310 -111.344654 80 39134ft 500kts
26-Apr-20 18:52 38.834168 -111.167050 80 39149ft 500kts
26-Apr-20 18:53 38.852642 -110.990425 80 39182ft 501kts
26-Apr-20 18:54 38.870789 -110.814294 80 39184ft 498kts
26-Apr-20 18:55 38.888687 -110.637926 80 39185ft 498kts
26-Apr-20 18:56 38.906303 -110.461641 79 39187ft 499kts
26-Apr-20 18:57 38.923703 -110.284846 80 39046ft 498kts
26-Apr-20 18:58 38.940859 -110.107599 80 39045ft 500kts
26-Apr-20 18:59 38.957741 -109.930397 80 39047ft 500kts
26-Apr-20 19:00 38.974330 -109.753363 80 39049ft 500kts
26-Apr-20 19:01 38.990675 -109.575976 80 39051ft 500kts
26-Apr-20 19:02 38.985131 -109.398717 107 39060ft 504kts
26-Apr-20 19:03 38.957365 -109.222535 98 39044ft 504kts
26-Apr-20 19:04 38.936397 -109.044092 98 39046ft 504kts
26-Apr-20 19:05 38.915309 -108.865852 98 39135ft 504kts
26-Apr-20 19:06 38.893958 -108.687753 98 39158ft 505kts
26-Apr-20 19:07 38.872374 -108.510061 98 39160ft 505kts
26-Apr-20 19:08 38.850912 -108.335623 98 39187ft 505kts
26-Apr-20 19:09 38.828652 -108.156993 98 39180ft 505kts
26-Apr-20 19:10 38.839321 -107.980934 73 39186ft 500kts
26-Apr-20 19:11 38.870488 -107.806881 74 39184ft 500kts
26-Apr-20 19:12 38.901226 -107.633120 74 39213ft 500kts
26-Apr-20 19:13 38.931601 -107.459784 74 39426ft 501kts
26-Apr-20 19:14 38.961689 -107.286550 74 39259ft 499kts
26-Apr-20 19:15 38.991623 -107.112478 74 39261ft 500kts
26-Apr-20 19:16 39.021432 -106.937496 74 39263ft 501kts
26-Apr-20 19:17 39.050920 -106.762721 74 39265ft 501kts
26-Apr-20 19:18 39.080135 -106.587898 74 38084ft 498kts
26-Apr-20 19:19 39.108659 -106.415534 75 36149ft 488kts
26-Apr-20 19:20 39.136494 -106.245730 76 34114ft 481kts
26-Apr-20 19:21 39.177861 -106.083587 62 32052ft 469kts
26-Apr-20 19:22 39.232211 -105.932576 63 30057ft 462kts
26-Apr-20 19:23 39.285938 -105.782559 62 28070ft 456kts
26-Apr-20 19:24 39.339118 -105.634533 61 25873ft 442kts
26-Apr-20 19:25 39.388357 -105.499408 61 24073ft 393kts
26-Apr-20 19:26 39.439489 -105.379849 50 22622ft 365kts
26-Apr-20 19:27 39.497349 -105.273003 50 19666ft 350kts
26-Apr-20 19:28 39.551703 -105.172658 50 16887ft 333kts
26-Apr-20 19:29 39.604149 -105.075300 50 15361ft 321kts
26-Apr-20 19:31 39.655110 -104.980505 51 13989ft 315kts
26-Apr-20 19:32 39.704842 -104.887669 51 12983ft 310kts
26-Apr-20 19:33 39.762903 -104.805781 39 11030ft 309kts
26-Apr-20 19:34 39.823705 -104.737036 33 8727ft 275kts
26-Apr-20 19:35 39.891611 -104.725671 356 6964ft 237kts
26-Apr-20 19:36 39.947213 -104.723490 8 7103ft 158kts
26-Apr-20 19:37 39.938632 -104.682190 194 6233ft 152kts
26-Apr-20 19:38 39.897113 -104.686803 182 5427ft 155kts
26-Apr-20 19:39 39.872556 -104.685954 152 5369ft 27kts
26-Apr-20 19:40 39.871919 -104.685500 150 5368ft 0kts
26-Apr-20 19:41 39.870878 -104.684990 174 5368ft 14kts
26-Apr-20 19:42 39.865284 -104.685043 179 5371ft 20kts
26-Apr-20 19:43 39.860397 -104.684827 122 5381ft 11kts
26-Apr-20 19:44 39.859432 -104.681952 181 5386ft 13kts
26-Apr-20 19:45 39.856685 -104.680662 89 5388ft 12kts
26-Apr-20 19:46 39.856635 -104.673958 90 5388ft 19kts
26-Apr-20 19:46 39.858032 -104.672787 359 5388ft 0kts
26-Apr-20 19:48 39.858032 -104.672787 359 5388ft 0kts

Navigation Log

Ident Type
Flight plan parsing failed, navigation log unavailable